East Randolph, Vermont
Current Conditions -  °F | °C
As of 8:51 PM on Monday 20 Oct 2014 (Local Time) from KMPV Reporting Station
Overcast Overcast  
Wind Chill: 43°   Ceiling: 7500
Heat Index: 43°   Visibility: 10mi
Dew Point: 36°   Wind: 3mph
Humidity: 76%   Direction: 160°SSE
Pressure: 29.97"   Gusts: NA
Location:  43.94°N, 72.55°W
Report Text: KMPV 210051Z AUTO 16003KT 10SM OVC075 06/02 A2997 RMK AO2 SLP160 T00610022 $
Loading
Personal Weather Stations






























Interactive Weather Map
Tropical Storm Tracking
New forecast layout! Learn more

10-Day Weather Forecast

Advertisements
Track Severe Weather on mobile